createdAt,value
2019-01-08T00:03:22.341Z,11.97
2019-01-08T00:08:19.039Z,11.93
2019-01-08T00:13:11.306Z,11.20
2019-01-08T00:18:03.442Z,12.37
2019-01-08T00:22:55.370Z,11.73
2019-01-08T00:27:47.248Z,11.40
2019-01-08T00:32:39.167Z,10.57
2019-01-08T00:37:31.453Z,10.63
2019-01-08T00:42:23.312Z,11.30
2019-01-08T00:47:17.544Z,12.00
2019-01-08T00:52:11.423Z,11.53
2019-01-08T00:57:02.599Z,12.43
2019-01-08T01:01:55.205Z,11.93
2019-01-08T01:07:10.215Z,13.63
2019-01-08T01:12:01.860Z,12.40
2019-01-08T01:16:54.038Z,10.60
2019-01-08T01:21:45.223Z,14.20
2019-01-08T01:26:39.183Z,11.13
2019-01-08T01:31:30.635Z,13.13
2019-01-08T01:36:21.950Z,11.43
2019-01-08T01:41:14.382Z,11.53
2019-01-08T01:46:06.799Z,12.57
2019-01-08T01:50:57.463Z,12.40
2019-01-08T01:55:48.817Z,13.23
2019-01-08T02:00:42.824Z,11.20
2019-01-08T02:05:36.675Z,10.43
2019-01-08T02:10:29.609Z,11.83
2019-01-08T02:15:40.385Z,10.40
2019-01-08T02:20:31.906Z,10.03
2019-01-08T02:25:24.426Z,9.77
2019-01-08T02:30:16.243Z,11.30
2019-01-08T02:35:09.148Z,13.73
2019-01-08T02:40:03.257Z,10.27
2019-01-08T02:44:55.000Z,10.03
2019-01-08T02:49:46.168Z,9.87
2019-01-08T02:54:39.055Z,9.93
2019-01-08T02:59:29.917Z,10.47
2019-01-08T03:04:21.386Z,11.13
2019-01-08T03:09:14.187Z,10.07
2019-01-08T03:14:06.194Z,11.43
2019-01-08T03:19:01.597Z,10.63
2019-01-08T03:23:54.738Z,11.07
2019-01-08T03:28:47.880Z,11.60
2019-01-08T03:33:39.397Z,10.67
2019-01-08T03:38:33.439Z,8.57
2019-01-08T03:43:26.781Z,11.43
2019-01-08T03:48:18.024Z,11.50
2019-01-08T03:53:10.636Z,10.33
2019-01-08T03:58:01.212Z,11.20
2019-01-08T04:03:18.671Z,10.27
2019-01-08T04:08:14.079Z,10.00
2019-01-08T04:13:21.792Z,12.00
2019-01-08T04:18:12.849Z,10.83
2019-01-08T04:23:04.197Z,11.77
2019-01-08T04:27:57.120Z,13.53
2019-01-08T04:32:50.272Z,13.17
2019-01-08T04:37:41.255Z,14.13
2019-01-08T04:42:34.012Z,14.80
2019-01-08T04:47:25.691Z,14.63
2019-01-08T04:52:16.437Z,14.93
2019-01-08T04:57:07.372Z,12.60
2019-01-08T05:01:58.770Z,12.53
2019-01-08T05:06:49.813Z,15.03
2019-01-08T05:11:41.992Z,14.20
2019-01-08T05:16:33.712Z,11.93
2019-01-08T05:21:27.533Z,13.13
2019-01-08T05:26:24.280Z,12.90
2019-01-08T05:31:14.602Z,13.33
2019-01-08T05:36:10.378Z,13.83
2019-01-08T05:41:02.108Z,15.67
2019-01-08T05:45:54.434Z,17.40
2019-01-08T05:50:47.279Z,18.70
2019-01-08T05:55:41.776Z,17.67
2019-01-08T06:00:33.083Z,16.30
2019-01-08T06:05:24.438Z,15.57
2019-01-08T06:10:16.517Z,16.17
2019-01-08T06:15:07.166Z,16.30
2019-01-08T06:19:57.939Z,13.53
2019-01-08T06:24:50.244Z,15.47
2019-01-08T06:29:43.349Z,13.93
2019-01-08T06:34:34.223Z,13.90
2019-01-08T06:39:25.563Z,16.40
2019-01-08T06:44:18.925Z,13.20
2019-01-08T06:49:12.158Z,14.23
2019-01-08T06:54:05.175Z,14.33
2019-01-08T06:58:56.945Z,12.17
2019-01-08T07:03:48.064Z,12.87
2019-01-08T07:08:41.303Z,13.30
2019-01-08T07:13:32.249Z,13.47
2019-01-08T07:18:23.571Z,13.63
2019-01-08T07:23:16.463Z,14.50
2019-01-08T07:28:07.494Z,15.03
2019-01-08T07:32:59.130Z,13.80
2019-01-08T07:37:52.127Z,14.37
2019-01-08T07:42:42.793Z,15.90
2019-01-08T07:47:33.659Z,14.33
2019-01-08T07:52:32.132Z,13.53
2019-01-08T07:57:23.950Z,11.87
2019-01-08T08:02:17.139Z,15.87
2019-01-08T08:07:07.480Z,14.43
2019-01-08T08:11:58.729Z,13.10
2019-01-08T08:16:51.809Z,15.57
2019-01-08T08:21:45.404Z,13.43
2019-01-08T08:26:37.977Z,13.27
2019-01-08T08:31:31.486Z,11.70
2019-01-08T08:36:21.789Z,13.90
2019-01-08T08:41:12.913Z,13.33
2019-01-08T08:46:05.566Z,14.57
2019-01-08T08:50:56.579Z,15.43
2019-01-08T08:55:48.091Z,13.57
2019-01-08T09:00:44.671Z,13.33
2019-01-08T09:05:35.149Z,14.20
2019-01-08T09:10:28.775Z,13.30
2019-01-08T09:15:49.112Z,14.27
2019-01-08T09:21:06.177Z,12.23
2019-01-08T09:26:21.952Z,12.97
2019-01-08T09:31:40.834Z,12.67
2019-01-08T09:37:04.314Z,13.13
2019-01-08T09:42:26.116Z,13.87
2019-01-08T09:47:48.680Z,13.67
2019-01-08T09:53:06.142Z,14.20
2019-01-08T09:58:23.797Z,13.83
2019-01-08T10:03:41.766Z,11.60
2019-01-08T10:09:00.634Z,13.70
2019-01-08T10:14:20.256Z,13.47
2019-01-08T10:19:35.868Z,15.40
2019-01-08T10:24:51.596Z,14.37
2019-01-08T10:30:04.719Z,15.77
2019-01-08T10:35:21.056Z,17.00
2019-01-08T10:40:14.518Z,16.23
2019-01-08T10:45:27.140Z,13.80
2019-01-08T10:50:20.024Z,13.73
2019-01-08T10:55:13.422Z,14.33
2019-01-08T11:00:04.445Z,14.03
2019-01-08T11:04:57.329Z,16.97
2019-01-08T11:09:51.089Z,14.17
2019-01-08T11:14:41.258Z,14.57
2019-01-08T11:19:34.402Z,14.37
2019-01-08T11:24:27.355Z,12.40
2019-01-08T11:29:18.842Z,14.03
2019-01-08T11:34:10.168Z,14.30
2019-01-08T11:39:03.290Z,13.83
2019-01-08T11:43:54.869Z,14.20
2019-01-08T11:48:45.683Z,13.93
2019-01-08T11:53:38.009Z,13.27
2019-01-08T11:58:32.258Z,13.50
2019-01-08T12:03:24.580Z,12.40
2019-01-08T12:08:15.633Z,13.50
2019-01-08T12:13:06.613Z,14.00
2019-01-08T12:17:57.005Z,13.30
2019-01-08T12:22:49.127Z,13.87
2019-01-08T12:27:40.177Z,14.07
2019-01-08T12:32:33.127Z,11.93
2019-01-08T12:37:24.641Z,13.30
2019-01-08T12:42:17.265Z,12.07
2019-01-08T12:47:07.372Z,11.50
2019-01-08T12:51:58.459Z,11.63
2019-01-08T12:56:49.730Z,10.40
2019-01-08T13:01:41.058Z,11.07
2019-01-08T13:06:31.841Z,10.83
2019-01-08T13:11:25.142Z,10.20
2019-01-08T13:16:19.143Z,10.60
2019-01-08T13:21:12.264Z,9.83
2019-01-08T13:26:03.002Z,10.37
2019-01-08T13:30:53.094Z,9.73
2019-01-08T13:35:43.740Z,10.90
2019-01-08T13:40:34.488Z,11.47
2019-01-08T13:45:27.134Z,12.37
2019-01-08T13:50:17.420Z,11.57
2019-01-08T13:55:11.987Z,13.60
2019-01-08T14:00:05.413Z,11.20
2019-01-08T14:04:58.015Z,12.30
2019-01-08T14:09:49.923Z,12.70
2019-01-08T14:14:41.489Z,12.27
2019-01-08T14:19:31.286Z,12.60
2019-01-08T14:24:21.677Z,11.93
2019-01-08T14:29:13.053Z,11.80
2019-01-08T14:34:04.567Z,20.83
2019-01-08T14:38:55.339Z,19.43
2019-01-08T14:43:45.717Z,20.93
2019-01-08T14:48:39.880Z,24.00
2019-01-08T14:53:31.000Z,12.60
2019-01-08T14:58:22.206Z,12.70
2019-01-08T15:03:14.388Z,13.27
2019-01-08T15:08:05.106Z,12.37
2019-01-08T15:12:56.506Z,14.00
2019-01-08T15:17:48.286Z,13.27
2019-01-08T15:22:41.280Z,16.60
2019-01-08T15:27:35.353Z,16.37
2019-01-08T15:32:27.113Z,16.60
2019-01-08T15:37:17.464Z,14.33
2019-01-08T15:42:16.398Z,17.10
2019-01-08T15:47:06.774Z,17.40
2019-01-08T15:52:01.708Z,23.80
2019-01-08T15:56:54.076Z,22.83
2019-01-08T16:01:45.365Z,16.80
2019-01-08T16:06:36.184Z,11.17
2019-01-08T16:11:29.039Z,11.87
2019-01-08T16:16:19.382Z,12.70
2019-01-08T16:21:10.210Z,22.43
2019-01-08T16:26:03.325Z,27.37
2019-01-08T16:30:53.113Z,47.47
2019-01-08T16:35:50.228Z,54.57
2019-01-08T16:40:40.365Z,50.87
2019-01-08T16:45:34.072Z,46.77
2019-01-08T16:50:24.840Z,72.60
2019-01-08T16:55:18.736Z,73.13
2019-01-08T17:00:12.866Z,55.03
2019-01-08T17:05:03.427Z,32.97
2019-01-08T17:09:54.260Z,16.97
2019-01-08T17:14:45.835Z,23.30
2019-01-08T17:19:42.310Z,20.77
2019-01-08T17:24:32.868Z,70.63
2019-01-08T17:29:24.452Z,29.17
2019-01-08T17:34:16.305Z,20.03
2019-01-08T17:39:10.410Z,28.07
2019-01-08T17:44:02.825Z,28.90
2019-01-08T17:48:56.795Z,18.53
2019-01-08T17:53:47.525Z,27.90
2019-01-08T17:59:01.946Z,32.67
2019-01-08T18:04:01.362Z,37.97
2019-01-08T18:08:52.279Z,27.00
2019-01-08T18:13:52.578Z,31.27
2019-01-08T18:19:13.756Z,38.40
2019-01-08T18:24:08.978Z,33.03
2019-01-08T18:29:07.455Z,24.63
2019-01-08T18:34:38.566Z,32.43
2019-01-08T18:39:32.232Z,45.03
2019-01-08T18:44:32.312Z,28.37
2019-01-08T18:49:36.794Z,28.73
2019-01-08T18:54:36.075Z,30.37
2019-01-08T18:59:27.421Z,43.00
2019-01-08T19:04:18.381Z,40.03
2019-01-08T19:09:39.279Z,32.33
2019-01-08T19:14:53.706Z,32.87
2019-01-08T19:20:13.859Z,35.83
2019-01-08T19:31:06.369Z,31.30
2019-01-08T19:36:01.487Z,34.53
2019-01-08T19:40:53.259Z,31.73
2019-01-08T19:45:45.518Z,32.03
2019-01-08T19:50:43.874Z,27.73
2019-01-08T19:55:37.226Z,24.67
2019-01-08T20:00:28.606Z,23.73
2019-01-08T20:05:29.536Z,29.33
2019-01-08T20:10:22.714Z,30.63
2019-01-08T20:15:15.809Z,34.57
2019-01-08T20:20:06.616Z,30.67
2019-01-08T20:24:57.243Z,22.60
2019-01-08T20:29:47.749Z,27.43
2019-01-08T20:34:38.355Z,25.10
2019-01-08T20:39:28.362Z,23.83
2019-01-08T20:44:18.673Z,23.53
2019-01-08T20:49:08.807Z,25.23
2019-01-08T20:54:02.060Z,30.67
2019-01-08T20:58:52.214Z,24.43
2019-01-08T21:03:42.703Z,34.17
2019-01-08T21:08:34.016Z,34.90
2019-01-08T21:13:25.114Z,41.77
2019-01-08T21:18:15.900Z,52.13
2019-01-08T21:23:06.804Z,31.37
2019-01-08T21:27:58.395Z,46.87
2019-01-08T21:32:55.170Z,32.20
2019-01-08T21:38:03.412Z,22.10
2019-01-08T21:42:56.508Z,27.00
2019-01-08T21:47:51.597Z,36.20
2019-01-08T21:52:46.396Z,25.43
2019-01-08T21:57:37.536Z,23.33
2019-01-08T22:02:28.360Z,25.60
2019-01-08T22:07:30.340Z,25.00
2019-01-08T22:12:20.476Z,24.13
2019-01-08T22:17:10.187Z,21.50
2019-01-08T22:22:00.350Z,20.13
2019-01-08T22:26:50.470Z,19.20
2019-01-08T22:31:40.773Z,26.90
2019-01-08T22:36:30.737Z,25.20
2019-01-08T22:41:21.551Z,23.67
2019-01-08T22:46:11.871Z,19.80
2019-01-08T22:51:02.166Z,21.17
2019-01-08T22:55:56.073Z,23.67
2019-01-08T23:01:05.808Z,19.77
2019-01-08T23:05:56.141Z,18.57
2019-01-08T23:10:45.933Z,18.30
2019-01-08T23:15:35.257Z,17.17
2019-01-08T23:20:25.587Z,17.03
2019-01-08T23:25:15.901Z,18.73
2019-01-08T23:30:06.979Z,18.10
2019-01-08T23:34:59.759Z,15.73
2019-01-08T23:39:49.858Z,16.43
2019-01-08T23:44:40.447Z,16.90
2019-01-08T23:49:32.959Z,15.70
2019-01-08T23:54:27.211Z,15.10
2019-01-08T23:59:17.256Z,15.63
